Time;durP1;ratioP1;P1;durP2;ratioP2;P2;SDS_P1;SDS_P2;PMS_P1;PMS_P2;Temp;Humidity;BMP_temperature;BMP_pressure;BME280_temperature;BME280_humidity;BME280_pressure;Samples;Min_cycle;Max_cycle;Signal;HPM_P1;HPM_P2
2023/08/15 00:00:29;;;;;;;7.13;4.35;;;;;;;19.58;59.49;99618.00;6287854;22;19998;-86
2023/08/15 00:02:54;;;;;;;8.52;4.53;;;;;;;19.58;59.55;99634.41;6261386;22;20006;-86
2023/08/15 00:05:19;;;;;;;8.65;4.85;;;;;;;19.54;59.50;99614.31;6286893;22;20017;-86
2023/08/15 00:07:45;;;;;;;6.88;4.78;;;;;;;19.55;59.77;99614.00;6287165;22;20064;-86
2023/08/15 00:10:10;;;;;;;8.52;4.78;;;;;;;19.59;59.68;99625.09;6285860;22;20006;-86
2023/08/15 00:12:36;;;;;;;9.05;5.18;;;;;;;19.46;59.85;99606.91;6287246;22;20385;-85
2023/08/15 00:15:02;;;;;;;9.88;5.40;;;;;;;19.49;60.67;99622.69;6261448;22;19991;-87
2023/08/15 00:17:28;;;;;;;7.18;5.13;;;;;;;19.52;60.18;99620.09;6262776;22;19999;-86
2023/08/15 00:19:53;;;;;;;8.65;5.13;;;;;;;19.42;60.61;99634.06;6287509;22;19999;-85
2023/08/15 00:22:18;;;;;;;7.95;5.13;;;;;;;19.35;60.93;99642.75;6261425;22;19995;-85
2023/08/15 00:24:44;;;;;;;11.57;5.93;;;;;;;19.32;61.19;99653.50;6262482;22;20010;-85
2023/08/15 00:27:09;;;;;;;10.20;5.68;;;;;;;19.29;60.67;99633.09;6260896;22;20071;-85
2023/08/15 00:29:35;;;;;;;7.30;5.50;;;;;;;19.25;60.84;99602.09;6259841;22;19999;-83
2023/08/15 00:32:02;;;;;;;8.98;5.10;;;;;;;19.37;60.38;99604.19;6260828;22;19995;-85
2023/08/15 00:34:27;;;;;;;8.77;5.13;;;;;;;19.33;61.73;99625.88;6286881;22;19995;-86
2023/08/15 00:36:53;;;;;;;6.63;4.90;;;;;;;19.27;61.77;99620.91;6287755;22;20003;-86
2023/08/15 00:39:18;;;;;;;10.68;5.22;;;;;;;19.40;61.91;99649.97;6287999;22;20025;-85
2023/08/15 00:41:44;;;;;;;9.38;5.72;;;;;;;19.39;61.01;99621.06;6261786;22;20006;-85
2023/08/15 00:44:09;;;;;;;9.65;5.80;;;;;;;19.42;60.74;99616.88;6286242;22;20007;-86
2023/08/15 00:46:36;;;;;;;9.55;5.68;;;;;;;19.25;61.26;99612.22;6287275;22;19998;-86
2023/08/15 00:49:02;;;;;;;11.25;6.13;;;;;;;19.38;61.54;99639.38;6287656;22;20018;-86
2023/08/15 00:51:27;;;;;;;9.35;5.82;;;;;;;19.44;61.26;99639.22;6286775;22;20001;-86
2023/08/15 00:53:53;;;;;;;12.95;5.97;;;;;;;19.43;62.08;99662.19;6286219;22;20025;-86
2023/08/15 00:56:20;;;;;;;10.05;6.38;;;;;;;19.46;61.89;99670.53;6260708;22;20095;-86
2023/08/15 00:58:47;;;;;;;9.68;5.97;;;;;;;19.41;61.38;99658.97;6286594;22;20003;-86
2023/08/15 01:01:15;;;;;;;10.55;6.53;;;;;;;19.40;61.08;99652.69;6287856;22;20055;-85
2023/08/15 01:03:40;;;;;;;8.77;5.85;;;;;;;19.37;60.80;99634.22;6287212;22;19998;-86
2023/08/15 01:06:06;;;;;;;11.88;5.85;;;;;;;19.38;61.14;99631.19;6261642;22;20429;-85
2023/08/15 01:08:31;;;;;;;8.93;6.18;;;;;;;19.40;60.98;99609.00;6261236;22;20002;-85
2023/08/15 01:10:57;;;;;;;11.02;6.07;;;;;;;19.37;61.30;99587.81;6286539;22;20057;-86
2023/08/15 01:13:27;;;;;;;10.77;6.82;;;;;;;19.42;61.14;99601.28;6261525;22;20006;-86
2023/08/15 01:15:53;;;;;;;9.50;6.38;;;;;;;19.55;61.06;99618.66;6263243;22;20407;-86
2023/08/15 01:18:22;;;;;;;10.77;7.05;;;;;;;19.52;61.25;99633.75;6263077;22;20060;-86
2023/08/15 01:20:48;;;;;;;13.43;6.70;;;;;;;19.50;61.13;99618.81;6288386;22;20056;-86
2023/08/15 01:23:14;;;;;;;17.27;9.23;;;;;;;19.32;62.06;99582.50;6263314;22;20007;-86
2023/08/15 01:25:40;;;;;;;18.98;9.35;;;;;;;19.29;62.39;99594.06;6288649;22;20003;-86
2023/08/15 01:28:10;;;;;;;19.05;8.50;;;;;;;19.38;60.99;99597.59;6262812;22;20003;-86
2023/08/15 01:30:36;;;;;;;12.20;7.85;;;;;;;19.46;61.94;99626.84;6264058;22;19995;-86
2023/08/15 01:33:10;;;;;;;13.13;7.13;;;;;;;19.39;61.64;99621.88;6288348;22;19998;-86
2023/08/15 01:35:43;;;;;;;11.02;6.88;;;;;;;19.27;61.92;99615.44;6263463;22;20018;-85
2023/08/15 01:38:34;;;;;;;11.73;6.30;;;;;;;19.18;62.91;99618.97;6263437;22;20425;-86
2023/08/15 01:41:00;;;;;;;9.43;5.88;;;;;;;19.06;62.99;99601.63;6298558;22;20009;-86
2023/08/15 01:43:26;;;;;;;12.50;6.88;;;;;;;18.92;63.99;99627.09;6287839;22;19999;-86
2023/08/15 01:45:54;;;;;;;8.73;6.18;;;;;;;18.89;63.57;99605.91;6262544;22;20498;-86
2023/08/15 01:48:20;;;;;;;10.00;6.15;;;;;;;18.89;63.11;99589.56;6262525;22;20052;-86
2023/08/15 01:50:45;;;;;;;11.05;6.78;;;;;;;18.98;63.27;99586.81;6262750;22;20003;-84
2023/08/15 01:53:11;;;;;;;9.52;5.85;;;;;;;18.83;63.32;99590.81;6262474;22;20022;-87
2023/08/15 01:55:36;;;;;;;11.35;5.32;;;;;;;18.84;63.76;99605.25;6262441;22;19998;-85
2023/08/15 01:58:02;;;;;;;8.77;5.47;;;;;;;18.98;63.38;99593.09;6261711;22;20011;-85
2023/08/15 02:00:28;;;;;;;10.95;5.95;;;;;;;18.89;63.92;99595.00;6262729;22;20005;-84
2023/08/15 02:02:53;;;;;;;10.10;5.82;;;;;;;18.89;64.08;99595.00;6262659;22;20018;-85
2023/08/15 02:05:19;;;;;;;10.35;6.47;;;;;;;18.74;64.37;99588.06;6262817;22;20064;-85
2023/08/15 02:07:44;;;;;;;7.95;6.47;;;;;;;18.81;64.00;99584.09;6287955;22;20086;-85
2023/08/15 02:10:10;;;;;;;10.63;6.25;;;;;;;18.78;64.03;99580.03;6262655;22;19999;-84
2023/08/15 02:12:35;;;;;;;12.38;6.20;;;;;;;18.84;63.84;99584.22;6288162;22;20025;-85
2023/08/15 02:15:04;;;;;;;9.23;6.55;;;;;;;18.83;64.41;99612.66;6263082;22;19999;-85
2023/08/15 02:17:29;;;;;;;11.50;6.15;;;;;;;18.88;64.24;99619.88;6289851;22;19999;-87
2023/08/15 02:19:55;;;;;;;10.65;6.25;;;;;;;18.89;64.61;99625.03;6287708;22;20009;-86
2023/08/15 02:22:21;;;;;;;10.02;6.15;;;;;;;18.91;64.34;99620.06;6288278;22;20006;-85
2023/08/15 02:24:46;;;;;;;6.93;5.43;;;;;;;19.00;63.46;99625.53;6261832;22;19999;-86
2023/08/15 02:27:12;;;;;;;9.55;6.10;;;;;;;18.96;63.61;99633.53;6288443;22;20026;-86
2023/08/15 02:29:37;;;;;;;10.70;5.72;;;;;;;18.86;63.45;99624.84;6262503;22;19998;-86
2023/08/15 02:32:03;;;;;;;7.28;5.50;;;;;;;18.88;63.87;99630.78;6288162;22;20005;-86
2023/08/15 02:34:28;;;;;;;7.32;4.82;;;;;;;18.86;63.20;99630.31;6261467;22;19995;-85
2023/08/15 02:36:54;;;;;;;9.68;5.60;;;;;;;18.85;63.24;99615.88;6262004;22;20380;-86
2023/08/15 02:39:19;;;;;;;11.35;5.63;;;;;;;18.92;63.75;99613.47;6288349;22;20056;-86
2023/08/15 02:41:45;;;;;;;8.30;5.70;;;;;;;18.84;63.55;99597.88;6286927;22;20448;-86
2023/08/15 02:44:10;;;;;;;10.50;5.93;;;;;;;18.76;63.82;99579.56;6287511;22;19999;-86
2023/08/15 02:46:36;;;;;;;10.65;6.70;;;;;;;18.84;63.63;99602.53;6262579;22;20440;-86
2023/08/15 02:49:01;;;;;;;10.23;5.90;;;;;;;18.78;63.73;99605.41;6262642;22;20425;-86
2023/08/15 02:51:27;;;;;;;9.43;5.57;;;;;;;18.80;63.69;99605.13;6262219;22;20000;-86
2023/08/15 02:53:52;;;;;;;11.35;5.32;;;;;;;18.88;63.96;99607.03;6262183;22;20021;-85
2023/08/15 02:56:18;;;;;;;13.43;5.32;;;;;;;18.89;63.54;99614.09;6288313;22;19995;-85
2023/08/15 02:58:43;;;;;;;10.88;5.13;;;;;;;18.93;62.72;99620.53;6262041;22;20014;-85
2023/08/15 03:01:09;;;;;;;7.82;4.57;;;;;;;18.83;63.10;99618.09;6262020;22;19998;-85
2023/08/15 03:03:35;;;;;;;8.27;4.90;;;;;;;18.87;62.60;99616.34;6287929;22;19995;-85
2023/08/15 03:06:03;;;;;;;16.58;5.13;;;;;;;18.86;63.12;99642.00;6286388;22;20386;-84
2023/08/15 03:08:30;;;;;;;9.07;5.20;;;;;;;18.80;62.99;99624.22;6262412;22;20003;-86
2023/08/15 03:10:56;;;;;;;7.40;5.45;;;;;;;19.01;61.99;99624.41;6263349;22;20062;-86
2023/08/15 03:13:21;;;;;;;7.53;5.30;;;;;;;19.12;61.46;99628.44;6262016;22;20405;-86
2023/08/15 03:15:54;;;;;;;24.88;7.43;;;;;;;19.10;66.61;99603.38;6261799;22;19998;-86
2023/08/15 03:18:22;;;;;;;12.23;5.70;;;;;;;19.06;65.17;99575.13;6262189;22;20002;-86
2023/08/15 03:20:58;;;;;;;13.02;5.43;;;;;;;18.96;67.33;99572.69;6263544;22;20448;-86
2023/08/15 03:23:23;;;;;;;8.45;6.07;;;;;;;19.00;69.33;99594.69;6261563;22;20003;-86
2023/08/15 03:26:00;;;;;;;11.55;6.35;;;;;;;19.00;70.39;99611.88;6261534;22;20451;-86
2023/08/15 03:28:26;;;;;;;9.60;6.47;;;;;;;18.88;72.26;99619.88;6287204;22;20083;-86
2023/08/15 03:30:51;;;;;;;12.55;6.80;;;;;;;18.91;71.82;99616.53;6261525;22;19999;-86
2023/08/15 03:33:17;;;;;;;8.05;5.88;;;;;;;18.93;71.97;99620.53;6261502;22;20010;-86
2023/08/15 03:35:51;;;;;;;8.25;5.70;;;;;;;18.90;70.55;99614.91;6287209;22;20525;-85
2023/08/15 03:38:18;;;;;;;12.90;5.85;;;;;;;18.85;69.79;99604.94;6261066;22;19994;-85
2023/08/15 03:40:44;;;;;;;12.23;4.85;;;;;;;18.89;70.14;99627.75;6261759;22;20001;-85
2023/08/15 03:43:10;;;;;;;11.90;6.15;;;;;;;18.91;72.79;99621.97;6260814;22;19995;-85
2023/08/15 03:45:39;;;;;;;12.73;8.07;;;;;;;18.69;74.51;99610.00;6261060;22;20003;-86
2023/08/15 03:48:05;;;;;;;14.45;8.18;;;;;;;18.37;75.96;99622.91;6289219;22;20065;-87
2023/08/15 03:50:34;;;;;;;17.52;10.27;;;;;;;18.34;77.79;99639.06;6262773;22;20341;-87
2023/08/15 03:53:00;;;;;;;18.75;10.40;;;;;;;18.31;76.24;99626.09;6262330;22;20361;-89
2023/08/15 03:55:35;;;;;;;20.45;11.57;;;;;;;18.20;78.20;99617.38;6263377;22;19995;-88
2023/08/15 03:58:00;;;;;;;21.55;12.20;;;;;;;18.11;78.93;99632.88;6265444;22;20081;-89
2023/08/15 04:00:26;;;;;;;19.63;11.88;;;;;;;18.08;79.22;99631.56;6262493;22;20001;-87
2023/08/15 04:02:51;;;;;;;19.48;12.35;;;;;;;18.10;76.96;99632.06;6263362;22;19999;-88
2023/08/15 04:05:19;;;;;;;19.70;11.40;;;;;;;18.11;76.88;99646.50;6287766;22;20052;-88
2023/08/15 04:07:45;;;;;;;17.77;12.55;;;;;;;17.95;77.36;99637.88;6263957;22;20006;-88
2023/08/15 04:10:13;;;;;;;19.95;12.10;;;;;;;18.14;76.84;99633.06;6262778;22;19994;-88
2023/08/15 04:12:48;;;;;;;21.77;13.13;;;;;;;17.92;77.28;99631.16;6264099;22;20030;-89
2023/08/15 04:15:13;;;;;;;24.30;13.07;;;;;;;17.91;79.56;99640.44;6263258;22;20440;-88
2023/08/15 04:17:48;;;;;;;17.25;13.25;;;;;;;17.92;78.76;99633.88;6265105;22;19999;-90
2023/08/15 04:20:13;;;;;;;18.17;11.40;;;;;;;17.98;77.08;99626.38;6263303;22;20057;-87
2023/08/15 04:22:39;;;;;;;20.45;12.20;;;;;;;18.12;78.90;99634.47;6262606;22;20424;-88
2023/08/15 04:25:09;;;;;;;18.25;10.98;;;;;;;18.24;76.91;99632.00;6262230;22;19999;-89
2023/08/15 04:27:36;;;;;;;16.90;12.05;;;;;;;18.29;75.89;99636.50;6264238;22;20003;-89
2023/08/15 04:30:09;;;;;;;19.17;12.00;;;;;;;18.38;75.10;99649.03;6261950;22;20006;-88
2023/08/15 04:32:35;;;;;;;21.52;11.50;;;;;;;18.38;76.76;99634.59;6264034;22;20002;-89
2023/08/15 04:35:00;;;;;;;20.00;11.18;;;;;;;18.46;75.27;99642.00;6289417;22;20070;-88
2023/08/15 04:37:26;;;;;;;16.88;11.15;;;;;;;18.57;75.14;99647.97;6262310;22;20345;-90
2023/08/15 04:39:59;;;;;;;15.35;10.55;;;;;;;18.66;75.61;99650.78;6263240;22;19999;-88
2023/08/15 04:42:24;;;;;;;16.58;10.02;;;;;;;18.51;76.01;99619.25;6263442;22;19999;-89
2023/08/15 04:44:50;;;;;;;21.73;10.32;;;;;;;18.45;76.86;99634.13;6263633;22;20003;-88
2023/08/15 04:47:17;;;;;;;18.73;11.52;;;;;;;18.46;77.09;99652.91;6263059;22;20448;-89
2023/08/15 04:49:43;;;;;;;21.15;13.43;;;;;;;18.41;75.63;99641.34;6265166;22;19998;-89
2023/08/15 04:52:08;;;;;;;18.63;12.38;;;;;;;18.28;75.66;99619.34;6265876;22;20035;-89
2023/08/15 04:54:34;;;;;;;17.27;10.02;;;;;;;18.48;75.89;99649.88;6265346;22;20015;-89
2023/08/15 04:56:59;;;;;;;15.43;10.15;;;;;;;18.40;75.50;99629.63;6265685;22;19995;-88
2023/08/15 04:59:25;;;;;;;13.68;8.68;;;;;;;18.64;73.60;99648.34;6266395;22;20014;-88
2023/08/15 05:01:50;;;;;;;17.33;9.85;;;;;;;18.74;75.16;99652.72;6266511;22;20002;-87
2023/08/15 05:04:16;;;;;;;15.43;11.55;;;;;;;18.72;74.82;99649.50;6266362;22;20007;-88
2023/08/15 05:06:41;;;;;;;17.00;10.90;;;;;;;18.88;75.67;99639.78;6267038;22;20025;-90
2023/08/15 05:09:07;;;;;;;50.22;24.67;;;;;;;18.95;74.03;99651.03;6265378;22;20026;-89
2023/08/15 05:11:32;;;;;;;30.33;14.18;;;;;;;18.93;74.92;99639.63;6292206;22;20014;-88
2023/08/15 05:14:00;;;;;;;25.63;15.43;;;;;;;19.10;74.80;99654.44;6267307;22;20475;-91
2023/08/15 05:16:26;;;;;;;26.15;13.77;;;;;;;19.22;73.97;99660.09;6265546;22;20443;-90
2023/08/15 05:18:51;;;;;;;20.73;12.10;;;;;;;19.08;73.17;99643.84;6269635;22;20050;-91
2023/08/15 05:21:37;;;;;;;26.38;17.90;;;;;;;19.22;73.36;99656.56;6267160;22;20022;-89
2023/08/15 05:24:06;;;;;;;16.90;10.55;;;;;;;19.11;74.90;99645.94;6316230;22;20010;-90
2023/08/15 05:26:31;;;;;;;22.80;11.35;;;;;;;19.12;73.92;99663.13;6267243;22;19998;-89
2023/08/15 05:28:57;;;;;;;16.98;10.68;;;;;;;19.05;75.13;99652.69;6266332;22;20006;-93
2023/08/15 05:31:22;;;;;;;25.30;10.70;;;;;;;19.17;73.05;99663.78;6266754;22;19995;-92
2023/08/15 05:33:51;;;;;;;22.58;13.23;;;;;;;19.15;72.47;99663.28;6269787;22;20002;-91
2023/08/15 05:36:19;;;;;;;22.55;12.07;;;;;;;19.40;73.04;99671.81;6270513;22;20024;-92
2023/08/15 05:38:45;;;;;;;29.33;16.45;;;;;;;19.42;71.93;99660.56;6303224;22;20002;-95
2023/08/15 05:41:11;;;;;;;21.20;12.77;;;;;;;19.30;72.86;99648.38;6269065;22;19999;-92
2023/08/15 05:43:40;;;;;;;16.33;11.65;;;;;;;19.38;72.90;99657.66;6267987;22;20007;-93
2023/08/15 05:46:08;;;;;;;20.23;11.50;;;;;;;19.47;73.39;99655.78;6270351;22;20006;-92
2023/08/15 05:48:37;;;;;;;27.85;13.02;;;;;;;19.50;73.15;99648.84;6274708;22;20007;-94
2023/08/15 05:51:07;;;;;;;19.42;11.85;;;;;;;19.83;72.72;99668.31;6306112;22;19983;-92
2023/08/15 05:53:32;;;;;;;17.38;11.80;;;;;;;19.76;71.35;99643.41;6321591;22;20393;-89
2023/08/15 05:56:09;;;;;;;20.55;12.38;;;;;;;19.85;71.58;99652.41;6271182;22;20020;-90
2023/08/15 05:58:46;;;;;;;16.75;11.60;;;;;;;19.92;70.80;99654.63;6273859;22;20449;-92
2023/08/15 06:01:22;;;;;;;18.27;11.90;;;;;;;19.83;70.47;99643.72;6274211;22;20003;-96
2023/08/15 06:03:53;;;;;;;18.83;12.52;;;;;;;19.95;70.75;99635.66;6276884;22;20021;-95
2023/08/15 06:10:09;;;;;;;17.52;11.55;;;;;;;20.27;70.00;99663.56;6352134;22;20078;-95
2023/08/15 06:12:59;;;;;;;26.77;11.10;;;;;;;20.23;69.29;99623.53;6302579;22;19987;-96
2023/08/15 06:15:27;;;;;;;14.88;10.68;;;;;;;20.26;69.66;99622.88;6275279;22;20433;-95
2023/08/15 06:17:54;;;;;;;15.80;10.80;;;;;;;20.44;68.83;99634.53;6275980;22;20003;-94
2023/08/15 06:20:20;;;;;;;27.30;11.45;;;;;;;20.39;69.29;99621.88;6275704;22;19998;-94
2023/08/15 06:22:48;;;;;;;19.55;11.75;;;;;;;20.50;67.92;99628.59;6302017;22;19994;-94
2023/08/15 06:28:50;;;;;;;16.70;12.18;;;;;;;20.79;67.97;99636.03;6348371;22;20494;-91
2023/08/15 06:31:18;;;;;;;21.92;14.60;;;;;;;20.70;68.26;99638.00;6303640;22;20453;-91
2023/08/15 06:33:47;;;;;;;14.23;10.38;;;;;;;20.70;67.19;99621.59;6279383;22;19986;-93
2023/08/15 06:36:13;;;;;;;17.02;11.48;;;;;;;21.08;67.64;99660.97;6231776;23;19996;-91
2023/08/15 06:38:39;;;;;;;18.48;10.93;;;;;;;21.14;65.49;99665.94;6204164;23;20030;-92
2023/08/15 06:41:09;;;;;;;24.38;11.45;;;;;;;21.26;66.38;99637.81;6204027;23;20011;-91
2023/08/15 06:43:39;;;;;;;17.20;10.75;;;;;;;21.29;65.39;99636.34;6202594;23;20023;-92
2023/08/15 06:46:05;;;;;;;15.82;10.95;;;;;;;21.48;63.86;99655.09;6230056;23;20403;-94
2023/08/15 06:48:36;;;;;;;18.35;10.82;;;;;;;21.46;64.88;99641.75;6230414;23;20015;-94
2023/08/15 06:51:04;;;;;;;20.20;10.55;;;;;;;21.77;63.40;99652.28;6205059;23;20004;-95
2023/08/15 06:53:35;;;;;;;38.55;25.52;;;;;;;21.83;63.34;99652.88;6212281;23;20028;-95
2023/08/15 06:56:00;;;;;;;15.25;9.30;;;;;;;21.77;62.22;99635.03;6215731;23;20005;-96
2023/08/15 06:58:31;;;;;;;27.83;18.38;;;;;;;22.07;62.63;99634.88;6238028;22;20005;-96
2023/08/15 07:01:03;;;;;;;77.03;52.08;;;;;;;22.33;61.36;99635.44;6207187;23;20024;-94
2023/08/15 07:03:33;;;;;;;16.17;10.80;;;;;;;22.54;61.21;99640.03;6234710;23;20061;-94
2023/08/15 07:06:25;;;;;;;11.23;8.50;;;;;;;22.80;58.66;99654.19;6231809;23;20004;-94
2023/08/15 07:09:16;;;;;;;20.38;8.63;;;;;;;22.61;60.52;99621.03;6227324;23;20000;-95
2023/08/15 07:11:53;;;;;;;15.25;9.73;;;;;;;22.65;60.56;99619.19;6225895;23;20111;-94
2023/08/15 07:14:29;;;;;;;17.80;9.13;;;;;;;22.82;59.78;99645.63;6266294;22;20012;-93
2023/08/15 07:17:03;;;;;;;134.77;82.63;;;;;;;22.70;59.92;99616.25;6231917;23;20007;-93
2023/08/15 07:19:36;;;;;;;21.88;9.85;;;;;;;22.98;60.31;99653.97;6230217;22;20007;-89
2023/08/15 07:22:03;;;;;;;17.48;8.95;;;;;;;22.95;58.40;99619.75;6276349;22;20029;-93
2023/08/15 07:24:31;;;;;;;21.85;8.68;;;;;;;23.06;59.54;99628.34;6270602;22;20374;-91
2023/08/15 07:27:12;;;;;;;16.25;7.88;;;;;;;23.23;59.68;99638.28;6273375;22;19999;-92
2023/08/15 07:29:38;;;;;;;14.20;8.23;;;;;;;23.29;59.29;99634.13;6275785;22;20130;-92
2023/08/15 07:32:08;;;;;;;45.83;28.35;;;;;;;23.40;59.36;99661.94;6271485;22;20010;-94
2023/08/15 07:34:33;;;;;;;15.45;8.20;;;;;;;23.37;57.79;99627.72;6270235;22;20025;-93
2023/08/15 07:37:17;;;;;;;37.28;24.65;;;;;;;23.47;56.59;99633.84;6271222;22;19998;-94
2023/08/15 07:39:42;;;;;;;23.60;14.00;;;;;;;23.86;55.94;99648.72;6207694;23;20000;-93
2023/08/15 07:42:08;;;;;;;15.65;8.88;;;;;;;23.98;55.08;99642.38;6204721;23;20007;-92
2023/08/15 07:45:01;;;;;;;30.90;22.63;;;;;;;24.06;55.32;99635.13;6184153;22;20031;-93
2023/08/15 07:48:02;;;;;;;11.02;6.70;;;;;;;24.35;54.36;99642.94;6240183;22;20028;-95
2023/08/15 07:50:41;;;;;;;15.65;6.93;;;;;;;24.21;53.97;99628.81;6264857;22;20024;-96
2023/08/15 07:53:22;;;;;;;7.47;4.93;;;;;;;24.32;52.40;99638.16;6209853;22;20027;-95
2023/08/15 07:56:46;;;;;;;23.70;15.27;;;;;;;24.47;51.33;99644.03;6215003;23;20442;-93
2023/08/15 08:02:23;;;;;;;7.25;3.92;;;;;;;24.50;50.59;99624.84;6321500;22;20028;-94
2023/08/15 08:04:54;;;;;;;8.52;5.43;;;;;;;24.43;50.19;99621.91;6327664;22;20011;-94
2023/08/15 08:07:34;;;;;;;7.22;4.20;;;;;;;24.54;49.96;99608.44;6296182;22;20003;-93
2023/08/15 08:12:37;;;;;;;7.80;4.90;;;;;;;24.79;50.34;99590.53;6304283;22;19921;-93
2023/08/15 08:15:13;;;;;;;7.65;5.00;;;;;;;24.79;50.24;99598.00;6329232;22;19986;-92
2023/08/15 08:17:39;;;;;;;7.45;3.97;;;;;;;24.83;49.99;99600.84;6275925;22;19998;-93
2023/08/15 08:20:20;;;;;;;6.13;4.30;;;;;;;24.91;49.74;99611.66;6295242;22;19998;-93
2023/08/15 08:22:55;;;;;;;5.25;3.92;;;;;;;25.07;50.23;99600.59;6309399;22;20003;-95
2023/08/15 08:25:42;;;;;;;4.70;3.55;;;;;;;25.07;49.46;99584.06;6277728;22;20516;-91
2023/08/15 08:28:10;;;;;;;4.90;3.78;;;;;;;24.99;49.78;99583.13;6291571;22;20001;-95
2023/08/15 08:30:52;;;;;;;;;;;;;;;;;;;;;
2023/08/15 08:33:28;;;;;;;11.57;6.68;;;;;;;25.28;50.37;99582.97;6319663;22;19999;-94
2023/08/15 08:35:56;;;;;;;5.75;4.43;;;;;;;25.44;49.82;99586.41;6275614;22;20003;-94
2023/08/15 08:38:22;;;;;;;7.97;4.57;;;;;;;25.60;48.97;99578.84;6270504;22;19999;-94
2023/08/15 08:40:54;;;;;;;8.55;4.20;;;;;;;25.61;48.76;99579.69;6273782;22;20030;-94
2023/08/15 08:43:35;;;;;;;6.82;4.57;;;;;;;25.82;48.47;99598.59;6331370;22;20002;-93
2023/08/15 08:51:27;;;;;;;6.18;4.15;;;;;;;25.93;48.24;99594.09;6325482;22;20452;-94
2023/08/15 08:53:56;;;;;;;10.30;4.38;;;;;;;25.88;49.01;99575.06;6270188;22;19999;-92
2023/08/15 08:56:27;;;;;;;6.63;5.00;;;;;;;26.01;48.77;99576.50;6272387;22;20437;-92
2023/08/15 08:58:59;;;;;;;;;;;;;;;26.26;47.29;99591.91;6272552;22;20054;-92
2023/08/15 09:01:29;;;;;;;9.77;5.43;;;;;;;26.00;48.37;99568.56;6327826;22;19916;-91
2023/08/15 09:04:00;;;;;;;9.25;5.68;;;;;;;25.83;48.87;99563.53;6271673;22;20014;-96
2023/08/15 09:06:29;;;;;;;9.88;4.85;;;;;;;26.14;48.36;99565.28;6295138;22;20006;-90
2023/08/15 09:08:57;;;;;;;8.13;4.65;;;;;;;26.32;47.86;99573.84;6268285;22;19999;-91
2023/08/15 09:11:22;;;;;;;7.82;4.43;;;;;;;26.29;47.39;99558.81;6266479;22;20064;-91
2023/08/15 09:13:52;;;;;;;6.53;4.70;;;;;;;26.35;47.78;99557.31;6271135;22;20052;-91
2023/08/15 09:16:17;;;;;;;8.95;4.68;;;;;;;26.66;47.53;99585.84;6323915;22;19999;-93
2023/08/15 09:18:43;;;;;;;7.05;4.80;;;;;;;26.61;47.82;99564.84;6271201;22;19994;-91
2023/08/15 09:21:28;;;;;;;7.80;4.10;;;;;;;26.52;47.29;99552.44;6305700;22;20028;-95
2023/08/15 09:23:59;;;;;;;8.23;4.45;;;;;;;26.80;46.73;99563.16;6271618;22;19995;-92
2023/08/15 09:26:25;;;;;;;9.25;5.38;;;;;;;26.92;46.80;99557.41;6299762;22;20022;-90
2023/08/15 09:29:02;;;;;;;7.20;5.13;;;;;;;27.05;46.19;99565.47;6267388;22;20082;-92
2023/08/15 09:31:28;;;;;;;10.15;4.80;;;;;;;27.16;46.36;99552.56;6269811;22;19999;-92
2023/08/15 09:33:57;;;;;;;5.03;4.10;;;;;;;27.32;45.65;99552.41;6267776;22;20048;-92
2023/08/15 09:36:26;;;;;;;9.15;5.30;;;;;;;27.58;45.91;99544.00;6275901;22;20089;-94
2023/08/15 09:38:54;;;;;;;6.32;3.97;;;;;;;27.77;44.86;99556.84;6271294;22;20054;-94
2023/08/15 09:41:26;;;;;;;5.50;4.10;;;;;;;27.76;44.27;99555.22;6268929;22;20007;-91
2023/08/15 09:43:57;;;;;;;7.13;4.90;;;;;;;27.89;45.14;99557.75;6273515;22;19996;-90
2023/08/15 09:46:23;;;;;;;7.38;4.10;;;;;;;28.11;44.26;99567.06;6271425;22;20040;-90
2023/08/15 09:48:49;;;;;;;9.30;4.45;;;;;;;28.31;44.29;99537.16;6268250;22;19998;-91
2023/08/15 09:51:19;;;;;;;6.68;4.50;;;;;;;28.56;43.97;99543.69;6269537;22;20018;-90
2023/08/15 09:53:57;;;;;;;13.60;7.95;;;;;;;28.58;43.81;99546.88;6269489;22;20060;-92
2023/08/15 09:56:29;;;;;;;8.25;4.95;;;;;;;28.67;43.71;99529.91;6273869;22;19999;-90
2023/08/15 09:58:54;;;;;;;18.50;6.03;;;;;;;28.75;43.48;99519.66;6269980;22;20079;-91
2023/08/15 10:01:20;;;;;;;8.00;4.20;;;;;;;28.71;43.49;99511.31;6271603;22;20003;-92
2023/08/15 10:03:45;;;;;;;8.35;4.13;;;;;;;28.67;43.16;99527.13;6269269;22;20009;-92
2023/08/15 10:06:18;;;;;;;5.22;4.18;;;;;;;28.64;43.45;99532.63;6271114;22;20082;-91
2023/08/15 10:08:46;;;;;;;6.68;4.40;;;;;;;28.58;43.54;99519.16;6275215;22;20099;-89
2023/08/15 10:11:15;;;;;;;6.03;4.00;;;;;;;28.48;43.08;99503.25;6265015;22;19995;-91
2023/08/15 10:13:41;;;;;;;9.85;4.32;;;;;;;28.63;43.08;99501.38;6270953;22;20062;-89
2023/08/15 10:16:08;;;;;;;6.57;4.53;;;;;;;28.61;43.48;99512.03;6267274;22;20429;-89
2023/08/15 10:18:34;;;;;;;5.95;4.15;;;;;;;28.74;43.46;99520.81;6268968;22;20085;-89
2023/08/15 10:21:18;;;;;;;7.18;4.60;;;;;;;28.72;43.53;99510.16;6272532;22;20002;-89
2023/08/15 10:23:59;;;;;;;8.52;4.43;;;;;;;28.76;43.47;99519.28;6304200;22;20051;-87
2023/08/15 10:26:27;;;;;;;6.10;4.30;;;;;;;28.84;43.56;99522.06;6228900;23;20072;-89
2023/08/15 10:28:56;;;;;;;6.10;4.20;;;;;;;28.79;43.86;99496.31;6201970;23;20011;-89
2023/08/15 10:31:37;;;;;;;9.13;4.38;;;;;;;28.75;43.89;99491.94;6224063;23;20004;-91
2023/08/15 10:34:03;;;;;;;;;;;;;;;29.05;43.52;99515.81;6201005;23;20000;-90
2023/08/15 10:36:30;;;;;;;5.75;4.25;;;;;;;28.77;43.35;99495.91;6249980;23;19990;-90
2023/08/15 10:38:58;;;;;;;6.80;5.07;;;;;;;29.00;43.55;99492.03;6228680;23;20012;-92
2023/08/15 10:41:27;;;;;;;5.80;4.53;;;;;;;29.31;42.88;99501.69;6229973;23;20477;-92
2023/08/15 10:44:04;;;;;;;;;;;;;;;;;;;;;
2023/08/15 10:46:42;;;;;;;7.90;4.38;;;;;;;29.50;42.67;99488.63;6230364;23;20030;-93
2023/08/15 10:49:57;;;;;;;6.57;4.00;;;;;;;29.78;42.33;99499.81;6252488;23;20012;-93
2023/08/15 10:52:25;;;;;;;8.07;4.20;;;;;;;29.65;42.21;99470.03;6195754;23;20099;-87
2023/08/15 10:54:54;;;;;;;7.63;4.70;;;;;;;29.73;42.79;99474.41;6193130;23;20023;-89
2023/08/15 10:57:19;;;;;;;5.97;4.32;;;;;;;29.84;42.59;99474.41;6191867;23;20042;-90
2023/08/15 10:59:45;;;;;;;7.55;4.45;;;;;;;29.76;41.94;99468.06;6194628;23;20414;-93
2023/08/15 11:02:10;;;;;;;5.85;3.80;;;;;;;29.92;41.86;99484.34;6196137;23;20066;-91
2023/08/15 11:04:41;;;;;;;7.82;4.00;;;;;;;29.68;41.95;99463.69;6271091;22;20335;-90
2023/08/15 11:07:13;;;;;;;7.18;4.20;;;;;;;29.78;42.30;99460.94;6232829;22;19995;-87
2023/08/15 11:09:38;;;;;;;6.03;4.07;;;;;;;29.85;42.11;99451.81;6251800;22;20004;-89
2023/08/15 11:12:09;;;;;;;6.38;4.70;;;;;;;29.95;41.94;99459.34;6233202;22;20023;-87
2023/08/15 11:14:38;;;;;;;7.70;4.40;;;;;;;29.72;41.16;99468.09;6238843;22;20086;-88
2023/08/15 11:17:04;;;;;;;9.77;5.15;;;;;;;29.85;41.64;99462.91;6232852;22;19999;-89
2023/08/15 11:19:30;;;;;;;8.77;5.15;;;;;;;29.87;41.77;99454.22;6233105;22;20003;-89
2023/08/15 11:21:56;;;;;;;8.43;4.43;;;;;;;29.81;42.40;99442.69;6243877;22;19995;-90
2023/08/15 11:24:23;;;;;;;5.38;4.38;;;;;;;29.97;42.20;99445.06;6241389;22;20097;-91
2023/08/15 11:27:01;;;;;;;7.90;3.97;;;;;;;29.91;41.96;99455.00;6240827;22;20050;-90
2023/08/15 11:29:29;;;;;;;6.82;4.05;;;;;;;29.80;40.87;99447.47;6290230;22;19999;-90
2023/08/15 11:31:58;;;;;;;6.60;4.30;;;;;;;29.93;41.12;99442.28;6235981;22;20148;-92
2023/08/15 11:34:24;;;;;;;6.90;4.50;;;;;;;30.23;40.88;99455.72;6265766;22;19999;-91
2023/08/15 11:36:52;;;;;;;7.20;4.38;;;;;;;30.19;40.45;99432.72;6233236;22;19999;-91
2023/08/15 11:39:17;;;;;;;6.55;3.60;;;;;;;30.42;40.60;99437.88;6234783;22;19999;-90
2023/08/15 11:41:48;;;;;;;11.20;4.40;;;;;;;30.51;39.69;99447.78;6264311;22;19999;-91
2023/08/15 11:44:13;;;;;;;8.15;5.13;;;;;;;30.69;39.80;99431.78;6237849;22;20033;-90
2023/08/15 11:46:45;;;;;;;7.40;4.75;;;;;;;30.96;39.62;99434.09;6237257;22;20056;-88
2023/08/15 11:49:20;;;;;;;8.35;4.88;;;;;;;31.15;39.59;99433.59;6265425;22;20087;-87
2023/08/15 11:52:04;;;;;;;6.03;3.88;;;;;;;31.05;39.29;99434.44;6250763;22;20023;-88
2023/08/15 11:54:29;;;;;;;10.10;4.40;;;;;;;31.24;38.64;99437.91;6266319;22;19992;-88
2023/08/15 11:57:41;;;;;;;7.30;5.25;;;;;;;31.27;38.52;99437.09;6261108;22;20003;-88